OCN112 EDDF-LEPA
Flight info
| Callsign | OCN112 |
|---|---|
| Flight time | N/A |
| Altitude | 35000 |
| Route | ANEKI2L/18 ANEKI Y163 HERBI Y164 MOPAN DCT LUTIX DCT BENOT DCT NEMOS DCT GEVEA DCT INCUS DCT BALSI DCT RETNO DCT TUPOX DCT MTG DCT DIVKO DCT VATIR DCT PIVUS N852 VERSO L129 LUNIK |
| Aircraft | A320/M-SDE3FGHIRWY/LB1 |
Departure
| Time | N/A |
|---|---|
| Airport | Frankfurt Main Airport (EDDF) |
Arrival
| Time | 2026-05-07 13:49 |
|---|---|
| Airport | Palma de Mallorca Airport (LEPA) |
| Time | Latitude | Longitude | Altitude | Speed | Heading |
|---|---|---|---|---|---|
| 2026-05-07 12:54 | 44.05440 | 5.44563 | 35999 ft | 423 kts | 206° |
| 2026-05-07 12:55 | 43.99955 | 5.41594 | 35993 ft | 423 kts | 206° |
| 2026-05-07 12:55 | 43.94503 | 5.38649 | 36003 ft | 423 kts | 206° |
| 2026-05-07 12:56 | 43.89035 | 5.35677 | 36003 ft | 422 kts | 206° |
| 2026-05-07 12:56 | 43.83575 | 5.32720 | 36003 ft | 421 kts | 206° |
| 2026-05-07 12:57 | 43.78116 | 5.29788 | 36004 ft | 420 kts | 206° |
| 2026-05-07 12:57 | 43.72663 | 5.26861 | 36001 ft | 420 kts | 206° |
| 2026-05-07 12:58 | 43.67223 | 5.23936 | 36005 ft | 419 kts | 206° |
| 2026-05-07 12:58 | 43.61785 | 5.21013 | 36000 ft | 419 kts | 206° |
| 2026-05-07 12:59 | 43.56343 | 5.18113 | 36003 ft | 419 kts | 205° |
| 2026-05-07 12:59 | 43.50909 | 5.15224 | 36006 ft | 418 kts | 206° |
| 2026-05-07 13:00 | 43.45485 | 5.12331 | 36009 ft | 418 kts | 206° |
| 2026-05-07 13:00 | 43.40072 | 5.09436 | 36011 ft | 416 kts | 207° |
| 2026-05-07 13:01 | 43.35161 | 5.05423 | 36013 ft | 410 kts | 218° |
| 2026-05-07 13:01 | 43.30470 | 5.00989 | 36011 ft | 409 kts | 218° |
| 2026-05-07 13:02 | 43.25787 | 4.96567 | 36012 ft | 409 kts | 218° |
| 2026-05-07 13:02 | 43.21096 | 4.92166 | 36011 ft | 408 kts | 218° |
| 2026-05-07 13:03 | 43.16405 | 4.87778 | 36012 ft | 408 kts | 218° |
| 2026-05-07 13:03 | 43.11714 | 4.83396 | 36012 ft | 408 kts | 217° |
| 2026-05-07 13:04 | 43.07062 | 4.79047 | 36011 ft | 408 kts | 217° |
| 2026-05-07 13:04 | 43.02179 | 4.75067 | 36011 ft | 409 kts | 213° |
| 2026-05-07 13:05 | 42.97203 | 4.71297 | 36012 ft | 409 kts | 213° |
| 2026-05-07 13:05 | 42.92224 | 4.67533 | 36010 ft | 409 kts | 213° |
| 2026-05-07 13:06 | 42.87256 | 4.63778 | 36011 ft | 407 kts | 213° |
| 2026-05-07 13:06 | 42.82298 | 4.60037 | 36009 ft | 407 kts | 213° |
| 2026-05-07 13:07 | 42.77344 | 4.56304 | 36009 ft | 407 kts | 213° |
| 2026-05-07 13:07 | 42.72400 | 4.52576 | 36010 ft | 406 kts | 213° |
| 2026-05-07 13:08 | 42.67453 | 4.48868 | 36013 ft | 406 kts | 212° |
| 2026-05-07 13:08 | 42.62511 | 4.45171 | 36013 ft | 405 kts | 213° |
| 2026-05-07 13:09 | 42.57568 | 4.41473 | 36015 ft | 405 kts | 213° |
| 2026-05-07 13:09 | 42.52636 | 4.37795 | 36014 ft | 404 kts | 212° |
| 2026-05-07 13:10 | 42.47714 | 4.34126 | 36011 ft | 403 kts | 213° |
| 2026-05-07 13:10 | 42.42802 | 4.30469 | 36010 ft | 403 kts | 213° |
| 2026-05-07 13:11 | 42.37889 | 4.26819 | 36011 ft | 403 kts | 212° |
| 2026-05-07 13:11 | 42.33014 | 4.23211 | 36013 ft | 402 kts | 212° |
| 2026-05-07 13:12 | 42.28109 | 4.19588 | 36013 ft | 402 kts | 213° |
| 2026-05-07 13:12 | 42.23206 | 4.15956 | 36010 ft | 401 kts | 212° |
| 2026-05-07 13:13 | 42.18303 | 4.12346 | 36012 ft | 401 kts | 212° |
| 2026-05-07 13:13 | 42.13401 | 4.08748 | 36012 ft | 401 kts | 212° |
| 2026-05-07 13:14 | 42.08502 | 4.05157 | 36013 ft | 400 kts | 212° |
| 2026-05-07 13:14 | 42.03613 | 4.01585 | 36010 ft | 400 kts | 212° |
| 2026-05-07 13:15 | 41.98730 | 3.98014 | 36005 ft | 399 kts | 212° |
| 2026-05-07 13:15 | 41.93835 | 3.94474 | 36005 ft | 401 kts | 209° |
| 2026-05-07 13:16 | 41.88446 | 3.92442 | 35999 ft | 410 kts | 195° |
| 2026-05-07 13:16 | 41.82815 | 3.91156 | 35995 ft | 411 kts | 195° |
| 2026-05-07 13:17 | 41.77183 | 3.89848 | 35996 ft | 411 kts | 195° |
| 2026-05-07 13:17 | 41.71549 | 3.88539 | 36000 ft | 411 kts | 195° |
| 2026-05-07 13:18 | 41.65908 | 3.87248 | 36001 ft | 410 kts | 195° |
| 2026-05-07 13:18 | 41.60280 | 3.85960 | 35997 ft | 410 kts | 195° |
| 2026-05-07 13:19 | 41.54653 | 3.84665 | 35997 ft | 410 kts | 195° |
| 2026-05-07 13:19 | 41.49024 | 3.83374 | 36000 ft | 410 kts | 195° |
| 2026-05-07 13:20 | 41.43397 | 3.82091 | 36004 ft | 410 kts | 195° |
| 2026-05-07 13:20 | 41.37777 | 3.80811 | 36002 ft | 409 kts | 195° |
| 2026-05-07 13:21 | 41.32158 | 3.79525 | 36005 ft | 409 kts | 195° |
| 2026-05-07 13:21 | 41.26552 | 3.78249 | 36004 ft | 409 kts | 195° |
| 2026-05-07 13:22 | 41.20978 | 3.76987 | 36000 ft | 408 kts | 195° |
| 2026-05-07 13:22 | 41.15399 | 3.75619 | 36000 ft | 405 kts | 201° |
| 2026-05-07 13:23 | 41.10166 | 3.73042 | 36000 ft | 400 kts | 206° |
| 2026-05-07 13:23 | 41.04945 | 3.70348 | 35993 ft | 400 kts | 205° |
| 2026-05-07 13:24 | 41.00636 | 3.68127 | 35991 ft | 400 kts | 205° |
| 2026-05-07 13:24 | 40.94611 | 3.65033 | 35991 ft | 399 kts | 205° |
| 2026-05-07 13:25 | 40.90270 | 3.62807 | 35989 ft | 399 kts | 205° |
| 2026-05-07 13:25 | 40.85098 | 3.60160 | 35992 ft | 399 kts | 205° |
| 2026-05-07 13:26 | 40.79923 | 3.57515 | 35993 ft | 399 kts | 205° |
| 2026-05-07 13:26 | 40.74751 | 3.54878 | 35995 ft | 398 kts | 205° |
| 2026-05-07 13:27 | 40.69588 | 3.52236 | 35993 ft | 398 kts | 205° |
| 2026-05-07 13:27 | 40.64464 | 3.49625 | 35993 ft | 397 kts | 205° |
| 2026-05-07 13:28 | 40.59309 | 3.47005 | 35989 ft | 397 kts | 205° |
| 2026-05-07 13:28 | 40.54151 | 3.44395 | 35988 ft | 397 kts | 205° |
| 2026-05-07 13:29 | 40.48996 | 3.41792 | 35989 ft | 397 kts | 205° |
| 2026-05-07 13:29 | 40.43689 | 3.39709 | 35642 ft | 403 kts | 193° |
| 2026-05-07 13:30 | 40.40878 | 3.39434 | 35388 ft | 409 kts | 186° |
| 2026-05-07 13:30 | 40.38022 | 3.39588 | 35134 ft | 411 kts | 184° |
| 2026-05-07 13:30 | 40.35162 | 3.39771 | 34889 ft | 411 kts | 184° |
| 2026-05-07 13:30 | 40.32302 | 3.39935 | 34639 ft | 411 kts | 184° |
| 2026-05-07 13:31 | 40.29432 | 3.40091 | 33835 ft | 416 kts | 184° |
| 2026-05-07 13:31 | 40.26514 | 3.40242 | 32787 ft | 423 kts | 184° |
| 2026-05-07 13:31 | 40.23558 | 3.40396 | 31717 ft | 428 kts | 184° |
| 2026-05-07 13:31 | 40.20569 | 3.40559 | 30775 ft | 430 kts | 183° |
| 2026-05-07 13:32 | 40.17558 | 3.40730 | 29689 ft | 435 kts | 183° |
| 2026-05-07 13:32 | 40.14526 | 3.40908 | 28597 ft | 436 kts | 183° |
| 2026-05-07 13:32 | 40.11522 | 3.41088 | 27437 ft | 427 kts | 182° |
| 2026-05-07 13:32 | 40.08587 | 3.41268 | 26308 ft | 417 kts | 182° |
| 2026-05-07 13:33 | 40.05701 | 3.41440 | 25204 ft | 416 kts | 182° |
| 2026-05-07 13:33 | 40.02793 | 3.41597 | 24093 ft | 421 kts | 182° |
| 2026-05-07 13:33 | 39.99896 | 3.41752 | 22982 ft | 422 kts | 182° |
| 2026-05-07 13:33 | 39.96979 | 3.41914 | 21864 ft | 417 kts | 181° |
| 2026-05-07 13:34 | 39.94091 | 3.42081 | 20864 ft | 413 kts | 181° |
| 2026-05-07 13:34 | 39.88374 | 3.42399 | 19249 ft | 411 kts | 180° |
| 2026-05-07 13:34 | 39.85517 | 3.42552 | 18458 ft | 411 kts | 180° |
| 2026-05-07 13:35 | 39.82664 | 3.42707 | 17684 ft | 410 kts | 180° |
| 2026-05-07 13:35 | 39.79821 | 3.42862 | 16932 ft | 408 kts | 179° |
| 2026-05-07 13:35 | 39.76986 | 3.43022 | 16268 ft | 405 kts | 179° |
| 2026-05-07 13:35 | 39.74242 | 3.42857 | 16113 ft | 386 kts | 191° |
| 2026-05-07 13:36 | 39.71742 | 3.41868 | 15986 ft | 369 kts | 205° |
| 2026-05-07 13:36 | 39.69598 | 3.40177 | 15859 ft | 355 kts | 219° |
| 2026-05-07 13:36 | 39.67890 | 3.37951 | 15734 ft | 342 kts | 232° |
| 2026-05-07 13:36 | 39.66662 | 3.35372 | 15609 ft | 331 kts | 243° |
| 2026-05-07 13:37 | 39.65658 | 3.32736 | 15483 ft | 321 kts | 242° |
| 2026-05-07 13:37 | 39.64679 | 3.30185 | 15359 ft | 311 kts | 242° |
| 2026-05-07 13:37 | 39.63720 | 3.27700 | 15128 ft | 305 kts | 242° |
| 2026-05-07 13:37 | 39.62776 | 3.25261 | 15061 ft | 302 kts | 242° |
| 2026-05-07 13:38 | 39.61832 | 3.22830 | 14844 ft | 303 kts | 242° |
| 2026-05-07 13:38 | 39.60877 | 3.20369 | 14398 ft | 305 kts | 242° |
| 2026-05-07 13:38 | 39.59942 | 3.17956 | 14094 ft | 303 kts | 242° |
| 2026-05-07 13:38 | 39.58998 | 3.15524 | 13745 ft | 302 kts | 242° |
| 2026-05-07 13:39 | 39.58059 | 3.13100 | 13384 ft | 301 kts | 242° |
| 2026-05-07 13:39 | 39.57125 | 3.10686 | 12884 ft | 297 kts | 242° |
| 2026-05-07 13:39 | 39.56199 | 3.08297 | 12226 ft | 296 kts | 242° |
| 2026-05-07 13:39 | 39.55278 | 3.05923 | 11611 ft | 293 kts | 242° |
| 2026-05-07 13:40 | 39.54370 | 3.03580 | 11060 ft | 289 kts | 242° |
| 2026-05-07 13:40 | 39.53467 | 3.01261 | 10433 ft | 288 kts | 242° |
| 2026-05-07 13:40 | 39.52566 | 2.98955 | 9793 ft | 287 kts | 242° |
| 2026-05-07 13:40 | 39.51667 | 2.96651 | 9129 ft | 286 kts | 242° |
| 2026-05-07 13:41 | 39.50768 | 2.94352 | 8485 ft | 286 kts | 242° |
| 2026-05-07 13:41 | 39.49874 | 2.92059 | 7830 ft | 285 kts | 242° |
| 2026-05-07 13:41 | 39.48984 | 2.89773 | 7192 ft | 284 kts | 242° |
| 2026-05-07 13:41 | 39.48098 | 2.87501 | 6562 ft | 281 kts | 241° |
| 2026-05-07 13:42 | 39.47216 | 2.85251 | 5925 ft | 279 kts | 241° |
| 2026-05-07 13:42 | 39.46340 | 2.83018 | 5278 ft | 277 kts | 241° |
| 2026-05-07 13:42 | 39.45469 | 2.80801 | 4629 ft | 276 kts | 241° |
| 2026-05-07 13:42 | 39.44628 | 2.78656 | 4450 ft | 257 kts | 241° |
| 2026-05-07 13:43 | 39.43855 | 2.76667 | 4310 ft | 239 kts | 241° |
| 2026-05-07 13:43 | 39.43136 | 2.74801 | 4185 ft | 225 kts | 241° |
| 2026-05-07 13:43 | 39.42465 | 2.73050 | 4062 ft | 208 kts | 241° |
| 2026-05-07 13:43 | 39.41859 | 2.71446 | 3954 ft | 189 kts | 242° |
| 2026-05-07 13:44 | 39.41541 | 2.69886 | 3841 ft | 173 kts | 269° |
| 2026-05-07 13:44 | 39.41805 | 2.68447 | 3607 ft | 162 kts | 300° |
| 2026-05-07 13:44 | 39.42532 | 2.67375 | 3276 ft | 157 kts | 330° |
| 2026-05-07 13:44 | 39.43456 | 2.66703 | 2950 ft | 154 kts | 336° |
| 2026-05-07 13:45 | 39.44391 | 2.66036 | 2627 ft | 153 kts | 336° |
| 2026-05-07 13:45 | 39.45319 | 2.65369 | 2307 ft | 152 kts | 335° |
| 2026-05-07 13:45 | 39.46239 | 2.64708 | 1999 ft | 150 kts | 335° |
| 2026-05-07 13:45 | 39.47150 | 2.64054 | 1692 ft | 149 kts | 335° |
| 2026-05-07 13:46 | 39.48056 | 2.63405 | 1372 ft | 148 kts | 335° |
| 2026-05-07 13:46 | 39.48953 | 2.62763 | 1072 ft | 147 kts | 335° |
| 2026-05-07 13:46 | 39.49892 | 2.62412 | 1005 ft | 139 kts | 8° |
| 2026-05-07 13:46 | 39.50753 | 2.62863 | 1005 ft | 133 kts | 45° |
| 2026-05-07 13:47 | 39.51281 | 2.63829 | 1018 ft | 132 kts | 60° |
| 2026-05-07 13:47 | 39.51762 | 2.64843 | 1010 ft | 132 kts | 60° |
| 2026-05-07 13:47 | 39.52245 | 2.65862 | 916 ft | 132 kts | 60° |
| 2026-05-07 13:47 | 39.52725 | 2.66874 | 775 ft | 132 kts | 60° |
| 2026-05-07 13:48 | 39.53206 | 2.67888 | 626 ft | 132 kts | 60° |
| 2026-05-07 13:48 | 39.53690 | 2.68897 | 498 ft | 133 kts | 60° |
| 2026-05-07 13:48 | 39.54162 | 2.69913 | 262 ft | 131 kts | 59° |
| 2026-05-07 13:48 | 39.54638 | 2.70912 | 88 ft | 132 kts | 58° |
| 2026-05-07 13:49 | 39.55109 | 2.71898 | 31 ft | 118 kts | 58° |
| 2026-05-07 13:49 | 39.55394 | 2.72501 | 28 ft | 25 kts | 58° |
| 2026-05-07 13:49 | 39.55462 | 2.72652 | 29 ft | 19 kts | 64° |
| 2026-05-07 13:49 | 39.55490 | 2.72819 | 31 ft | 19 kts | 82° |
| 2026-05-07 13:50 | 39.55497 | 2.72997 | 32 ft | 20 kts | 88° |
| 2026-05-07 13:50 | 39.55447 | 2.73108 | 31 ft | 15 kts | 121° |
| 2026-05-07 13:50 | 39.55403 | 2.73229 | 33 ft | 15 kts | 104° |
| 2026-05-07 13:50 | 39.55406 | 2.73371 | 32 ft | 16 kts | 62° |
| 2026-05-07 13:51 | 39.55369 | 2.73484 | 33 ft | 17 kts | 147° |
| 2026-05-07 13:51 | 39.55267 | 2.73571 | 31 ft | 18 kts | 144° |
| 2026-05-07 13:51 | 39.55160 | 2.73546 | 33 ft | 17 kts | 222° |
| 2026-05-07 13:51 | 39.55099 | 2.73430 | 33 ft | 15 kts | 228° |
| 2026-05-07 13:52 | 39.55023 | 2.73432 | 34 ft | 4 kts | 158° |
| 2026-05-07 13:52 | 39.55005 | 2.73438 | 34 ft | 1 kts | 168° |
| 2026-05-07 13:52 | 39.55003 | 2.73439 | 34 ft | 0 kts | 167° |